createdAt,value
2016-06-05T00:00:08.899Z,0
2016-06-05T00:01:09.027Z,0
2016-06-05T00:02:09.014Z,0
2016-06-05T00:03:09.032Z,0
2016-06-05T00:04:08.988Z,0
2016-06-05T00:05:08.959Z,0
2016-06-05T00:06:08.791Z,0
2016-06-05T00:07:08.949Z,0
2016-06-05T00:08:08.920Z,0
2016-06-05T00:09:08.924Z,0
2016-06-05T00:10:08.879Z,0
2016-06-05T00:11:08.866Z,0
2016-06-05T00:12:08.869Z,0
2016-06-05T00:13:10.185Z,0
2016-06-05T00:14:08.671Z,0
2016-06-05T00:15:08.673Z,0
2016-06-05T00:16:08.801Z,0
2016-06-05T00:17:08.773Z,0
2016-06-05T00:18:08.760Z,0
2016-06-05T00:19:08.763Z,0
2016-06-05T00:20:08.734Z,0
2016-06-05T00:21:08.721Z,0
2016-06-05T00:22:08.724Z,0
2016-06-05T00:23:08.695Z,0
2016-06-05T00:24:08.667Z,0
2016-06-05T00:25:08.498Z,0
2016-06-05T00:26:08.641Z,0
2016-06-05T00:27:08.472Z,0
2016-06-05T00:28:09.537Z,0
2016-06-05T00:29:08.602Z,0
2016-06-05T00:30:08.620Z,0
2016-06-05T00:31:08.561Z,0
2016-06-05T00:32:08.563Z,0
2016-06-05T00:33:08.550Z,0
2016-06-05T00:34:08.537Z,0
2016-06-05T00:35:08.508Z,0
2016-06-05T00:36:08.480Z,0
2016-06-05T00:37:08.483Z,0
2016-06-05T00:38:08.470Z,0
2016-06-05T00:39:08.457Z,0
2016-06-05T00:40:08.272Z,0
2016-06-05T00:41:08.416Z,0
2016-06-05T00:42:08.497Z,0
2016-06-05T00:43:08.421Z,0
2016-06-05T00:44:08.360Z,0
2016-06-05T00:45:08.349Z,0
2016-06-05T00:46:08.335Z,0
2016-06-05T00:47:08.321Z,0
2016-06-05T00:48:08.309Z,0
2016-06-05T00:49:08.296Z,0
2016-06-05T00:50:08.284Z,0
2016-06-05T00:51:08.240Z,0
2016-06-05T00:52:08.242Z,0
2016-06-05T00:53:08.245Z,0
2016-06-05T00:54:08.201Z,0
2016-06-05T00:55:08.203Z,0
2016-06-05T00:56:08.190Z,0
2016-06-05T00:57:08.006Z,0
2016-06-05T00:58:08.399Z,0
2016-06-05T00:59:08.120Z,0
2016-06-05T01:00:08.107Z,0
2016-06-05T01:01:08.110Z,0
2016-06-05T01:02:08.081Z,0
2016-06-05T01:03:08.068Z,0
2016-06-05T01:04:08.040Z,0
2016-06-05T01:05:08.027Z,0
2016-06-05T01:06:08.030Z,0
2016-06-05T01:07:08.048Z,0
2016-06-05T01:08:08.003Z,0
2016-06-05T01:09:07.975Z,0
2016-06-05T01:10:07.963Z,0
2016-06-05T01:11:07.778Z,0
2016-06-05T01:12:07.921Z,0
2016-06-05T01:13:08.330Z,0
2016-06-05T01:14:07.894Z,0
2016-06-05T01:15:07.726Z,0
2016-06-05T01:16:07.869Z,0
2016-06-05T01:17:07.840Z,0
2016-06-05T01:18:07.843Z,0
2016-06-05T01:19:07.815Z,0
2016-06-05T01:20:07.802Z,0
2016-06-05T01:21:07.789Z,0
2016-06-05T01:22:07.776Z,0
2016-06-05T01:23:07.748Z,0
2016-06-05T01:24:07.750Z,0
2016-06-05T01:25:07.721Z,0
2016-06-05T01:26:07.709Z,0
2016-06-05T01:27:07.695Z,0
2016-06-05T01:28:07.761Z,0
2016-06-05T01:29:07.654Z,0
2016-06-05T01:30:07.656Z,0
2016-06-05T01:31:07.629Z,0
2016-06-05T01:32:07.631Z,0
2016-06-05T01:33:07.617Z,0
2016-06-05T01:34:07.589Z,0
2016-06-05T01:35:07.561Z,0
2016-06-05T01:36:07.564Z,0
2016-06-05T01:37:07.536Z,0
2016-06-05T01:38:07.366Z,0
2016-06-05T01:39:07.508Z,0
2016-06-05T01:40:07.497Z,0
2016-06-05T01:41:07.467Z,0
2016-06-05T01:42:07.455Z,0
2016-06-05T01:43:07.927Z,0
2016-06-05T01:44:07.430Z,0
2016-06-05T01:45:07.416Z,0
2016-06-05T01:46:07.387Z,0
2016-06-05T01:47:07.374Z,0
2016-06-05T01:48:07.361Z,0
2016-06-05T01:49:07.332Z,0
2016-06-05T01:50:07.352Z,0
2016-06-05T01:51:07.323Z,0
2016-06-05T01:52:07.310Z,0
2016-06-05T01:53:07.296Z,0
2016-06-05T01:54:07.268Z,0
2016-06-05T01:55:07.099Z,0
2016-06-05T01:56:07.087Z,0
2016-06-05T01:57:07.229Z,0
2016-06-05T01:58:08.153Z,0
2016-06-05T01:59:07.203Z,0
2016-06-05T02:00:07.176Z,0
2016-06-05T02:01:07.178Z,0
2016-06-05T02:02:07.165Z,0
2016-06-05T02:03:07.137Z,0
2016-06-05T02:04:07.108Z,0
2016-06-05T02:05:07.095Z,0
2016-06-05T02:06:07.081Z,0
2016-06-05T02:07:07.069Z,0
2016-06-05T02:08:07.056Z,0
2016-06-05T02:09:07.058Z,0
2016-06-05T02:10:07.014Z,0
2016-06-05T02:11:07.017Z,0
2016-06-05T02:12:07.005Z,0
2016-06-05T02:13:06.991Z,0
2016-06-05T02:14:06.947Z,0
2016-06-05T02:15:06.777Z,0
2016-06-05T02:16:06.921Z,0
2016-06-05T02:17:06.924Z,0
2016-06-05T02:18:06.895Z,0
2016-06-05T02:19:06.882Z,0
2016-06-05T02:20:06.854Z,0
2016-06-05T02:21:06.872Z,0
2016-06-05T02:22:06.827Z,0
2016-06-05T02:23:06.815Z,0
2016-06-05T02:24:06.645Z,0
2016-06-05T02:25:06.789Z,0
2016-06-05T02:26:06.777Z,0
2016-06-05T02:27:06.748Z,0
2016-06-05T02:28:06.750Z,0
2016-06-05T02:29:06.721Z,0
2016-06-05T02:30:06.709Z,0
2016-06-05T02:31:06.696Z,0
2016-06-05T02:32:06.683Z,0
2016-06-05T02:33:06.654Z,0
2016-06-05T02:34:06.642Z,0
2016-06-05T02:35:06.628Z,0
2016-06-05T02:36:06.600Z,0
2016-06-05T02:37:06.587Z,0
2016-06-05T02:38:06.575Z,0
2016-06-05T02:39:06.577Z,0
2016-06-05T02:40:06.547Z,0
2016-06-05T02:41:06.536Z,0
2016-06-05T02:42:06.506Z,0
2016-06-05T02:43:06.524Z,0
2016-06-05T02:44:06.341Z,0
2016-06-05T02:45:06.468Z,0
2016-06-05T02:46:06.455Z,0
2016-06-05T02:47:06.427Z,0
2016-06-05T02:48:06.430Z,0
2016-06-05T02:49:06.400Z,0
2016-06-05T02:50:06.388Z,0
2016-06-05T02:51:06.375Z,0
2016-06-05T02:52:06.363Z,0
2016-06-05T02:53:06.349Z,0
2016-06-05T02:54:06.335Z,0
2016-06-05T02:55:06.324Z,0
2016-06-05T02:56:06.294Z,0
2016-06-05T02:57:06.265Z,0
2016-06-05T02:58:07.004Z,0
2016-06-05T02:59:06.256Z,0
2016-06-05T03:00:06.226Z,0
2016-06-05T03:01:05.901Z,0
2016-06-05T03:02:06.201Z,0
2016-06-05T03:03:06.188Z,0
2016-06-05T03:04:06.175Z,0
2016-06-05T03:05:06.006Z,0
2016-06-05T03:06:06.133Z,0
2016-06-05T03:07:06.120Z,0
2016-06-05T03:08:06.108Z,0
2016-06-05T03:09:06.078Z,0
2016-06-05T03:10:06.067Z,0
2016-06-05T03:11:06.085Z,0
2016-06-05T03:12:05.884Z,0
2016-06-05T03:13:06.434Z,0
2016-06-05T03:14:05.999Z,0
2016-06-05T03:15:05.986Z,0
2016-06-05T03:16:05.973Z,0
2016-06-05T03:17:05.960Z,0
2016-06-05T03:18:05.947Z,0
2016-06-05T03:19:05.934Z,0
2016-06-05T03:20:05.921Z,0
2016-06-05T03:21:05.752Z,0
2016-06-05T03:22:05.879Z,0
2016-06-05T03:23:05.851Z,0
2016-06-05T03:24:05.854Z,0
2016-06-05T03:25:05.841Z,0
2016-06-05T03:26:05.844Z,0
2016-06-05T03:27:05.815Z,0
2016-06-05T03:28:05.693Z,0
2016-06-05T03:29:06.430Z,0
2016-06-05T03:30:05.760Z,0
2016-06-05T03:31:05.748Z,0
2016-06-05T03:32:05.720Z,0
2016-06-05T03:33:05.706Z,0
2016-06-05T03:34:05.678Z,0
2016-06-05T03:35:05.681Z,0
2016-06-05T03:36:05.652Z,0
2016-06-05T03:37:05.654Z,0
2016-06-05T03:38:05.626Z,0
2016-06-05T03:39:05.614Z,0
2016-06-05T03:40:05.600Z,0
2016-06-05T03:41:05.572Z,0
2016-06-05T03:42:05.558Z,0
2016-06-05T03:43:05.718Z,0
2016-06-05T03:44:05.767Z,0
2016-06-05T03:45:05.519Z,0
2016-06-05T03:46:05.491Z,0
2016-06-05T03:47:05.338Z,0
2016-06-05T03:48:05.481Z,0
2016-06-05T03:49:05.437Z,0
2016-06-05T03:50:05.439Z,0
2016-06-05T03:51:05.427Z,0
2016-06-05T03:52:05.414Z,0
2016-06-05T03:53:05.385Z,0
2016-06-05T03:54:05.357Z,0
2016-06-05T03:55:05.360Z,0
2016-06-05T03:56:05.174Z,0
2016-06-05T03:57:05.318Z,0
2016-06-05T03:58:06.054Z,0
2016-06-05T03:59:05.323Z,0
2016-06-05T04:00:05.279Z,0
2016-06-05T04:01:05.251Z,0
2016-06-05T04:02:05.238Z,0
2016-06-05T04:03:05.224Z,0
2016-06-05T04:04:05.040Z,0
2016-06-05T04:05:05.184Z,0
2016-06-05T04:06:05.014Z,0
2016-06-05T04:07:05.157Z,0
2016-06-05T04:08:05.144Z,0
2016-06-05T04:09:05.131Z,0
2016-06-05T04:10:05.118Z,0
2016-06-05T04:11:05.106Z,0
2016-06-05T04:12:05.077Z,0
2016-06-05T04:13:05.220Z,0
2016-06-05T04:14:05.051Z,0
2016-06-05T04:15:05.039Z,0
2016-06-05T04:16:05.025Z,0
2016-06-05T04:17:05.019Z,0
2016-06-05T04:18:05.018Z,0
2016-06-05T04:19:05.033Z,0
2016-06-05T04:20:05.048Z,0
2016-06-05T04:21:05.047Z,0
2016-06-05T04:22:05.057Z,0
2016-06-05T04:23:05.069Z,0
2016-06-05T04:24:05.051Z,0
2016-06-05T04:25:05.048Z,0
2016-06-05T04:26:05.030Z,0
2016-06-05T04:27:04.885Z,0
2016-06-05T04:28:05.376Z,0
2016-06-05T04:29:05.507Z,0
2016-06-05T04:30:04.998Z,0
2016-06-05T04:31:04.989Z,0
2016-06-05T04:32:04.964Z,0
2016-06-05T04:33:04.967Z,0
2016-06-05T04:34:04.940Z,0
2016-06-05T04:35:04.912Z,0
2016-06-05T04:36:04.916Z,0
2016-06-05T04:37:04.888Z,0
2016-06-05T04:38:04.892Z,0
2016-06-05T04:39:04.863Z,0
2016-06-05T04:40:04.851Z,0
2016-06-05T04:41:04.838Z,0
2016-06-05T04:42:04.826Z,0
2016-06-05T04:43:05.205Z,0
2016-06-05T04:44:04.770Z,0
2016-06-05T04:45:04.772Z,0
2016-06-05T04:46:04.745Z,0
2016-06-05T04:47:04.731Z,0
2016-06-05T04:48:04.719Z,0
2016-06-05T04:49:04.706Z,0
2016-06-05T04:50:04.692Z,0
2016-06-05T04:51:04.680Z,0
2016-06-05T04:52:04.652Z,0
2016-06-05T04:53:04.655Z,0
2016-06-05T04:54:04.625Z,0
2016-06-05T04:55:04.441Z,0
2016-06-05T04:56:04.599Z,0
2016-06-05T04:57:04.572Z,0
2016-06-05T04:58:05.183Z,0
2016-06-05T04:59:04.546Z,0
2016-06-05T05:00:04.532Z,0
2016-06-05T05:01:04.535Z,0
2016-06-05T05:02:04.507Z,0
2016-06-05T05:03:04.477Z,0
2016-06-05T05:04:04.465Z,0
2016-06-05T05:05:04.437Z,0
2016-06-05T05:06:04.424Z,0
2016-06-05T05:07:04.410Z,0
2016-06-05T05:08:04.398Z,0
2016-06-05T05:09:04.385Z,0
2016-06-05T05:10:04.372Z,0
2016-06-05T05:11:04.359Z,0
2016-06-05T05:12:04.345Z,0
2016-06-05T05:13:04.724Z,0
2016-06-05T05:14:04.851Z,0
2016-06-05T05:15:04.292Z,0
2016-06-05T05:16:04.122Z,0
2016-06-05T05:17:04.250Z,0
2016-06-05T05:18:04.237Z,5
2016-06-05T05:19:04.224Z,5
2016-06-05T05:20:04.227Z,5
2016-06-05T05:21:04.198Z,5
2016-06-05T05:22:04.014Z,5
2016-06-05T05:23:04.173Z,5
2016-06-05T05:24:04.144Z,5
2016-06-05T05:25:04.131Z,5
2016-06-05T05:26:04.119Z,5
2016-06-05T05:27:04.089Z,5
2016-06-05T05:28:05.389Z,10
2016-06-05T05:29:04.751Z,10
2016-06-05T05:30:04.050Z,10
2016-06-05T05:31:04.022Z,10
2016-06-05T05:32:04.010Z,10
2016-06-05T05:33:03.996Z,10
2016-06-05T05:34:03.968Z,10
2016-06-05T05:35:03.970Z,10
2016-06-05T05:36:03.941Z,10
2016-06-05T05:37:03.929Z,10
2016-06-05T05:38:03.916Z,10
2016-06-05T05:39:03.903Z,15
2016-06-05T05:40:03.874Z,15
2016-06-05T05:41:03.862Z,15
2016-06-05T05:42:03.849Z,15
2016-06-05T05:43:04.164Z,15
2016-06-05T05:44:03.806Z,15
2016-06-05T05:45:03.795Z,15
2016-06-05T05:46:03.781Z,15
2016-06-05T05:47:03.768Z,15
2016-06-05T05:48:03.755Z,15
2016-06-05T05:49:03.726Z,20
2016-06-05T05:50:03.714Z,20
2016-06-05T05:51:03.545Z,20
2016-06-05T05:52:03.688Z,20
2016-06-05T05:53:03.675Z,20
2016-06-05T05:54:03.647Z,20
2016-06-05T05:55:03.633Z,20
2016-06-05T05:56:03.620Z,25
2016-06-05T05:57:03.608Z,25
2016-06-05T05:58:03.439Z,25
2016-06-05T05:59:03.582Z,25
2016-06-05T06:00:04.397Z,25
2016-06-05T06:01:03.978Z,25
2016-06-05T06:02:03.511Z,25
2016-06-05T06:03:03.499Z,25
2016-06-05T06:04:03.502Z,30
2016-06-05T06:05:03.488Z,30
2016-06-05T06:06:03.476Z,30
2016-06-05T06:07:03.462Z,30
2016-06-05T06:08:03.418Z,30
2016-06-05T06:09:03.421Z,30
2016-06-05T06:10:03.392Z,30
2016-06-05T06:11:03.379Z,35
2016-06-05T06:12:03.351Z,35
2016-06-05T06:13:03.401Z,35
2016-06-05T06:14:03.481Z,35
2016-06-05T06:15:03.328Z,35
2016-06-05T06:16:03.299Z,35
2016-06-05T06:17:03.286Z,35
2016-06-05T06:18:03.258Z,35
2016-06-05T06:19:03.245Z,35
2016-06-05T06:20:03.232Z,35
2016-06-05T06:21:03.203Z,35
2016-06-05T06:22:03.206Z,35
2016-06-05T06:23:03.175Z,35
2016-06-05T06:24:03.161Z,35
2016-06-05T06:25:03.009Z,35
2016-06-05T06:26:03.136Z,40
2016-06-05T06:27:03.122Z,40
2016-06-05T06:28:03.831Z,40
2016-06-05T06:29:03.755Z,40
2016-06-05T06:30:03.068Z,40
2016-06-05T06:31:03.055Z,40
2016-06-05T06:32:03.043Z,40
2016-06-05T06:33:03.014Z,40
2016-06-05T06:34:03.001Z,40
2016-06-05T06:35:02.972Z,40
2016-06-05T06:36:02.975Z,45
2016-06-05T06:37:02.962Z,45
2016-06-05T06:38:02.934Z,45
2016-06-05T06:39:02.921Z,45
2016-06-05T06:40:02.908Z,45
2016-06-05T06:41:02.895Z,45
2016-06-05T06:42:02.882Z,45
2016-06-05T06:43:03.401Z,45
2016-06-05T06:44:03.871Z,45
2016-06-05T06:45:02.828Z,45
2016-06-05T06:46:02.831Z,45
2016-06-05T06:47:02.786Z,45
2016-06-05T06:48:02.774Z,45
2016-06-05T06:49:02.776Z,50
2016-06-05T06:50:02.747Z,50
2016-06-05T06:51:02.719Z,50
2016-06-05T06:52:02.706Z,50
2016-06-05T06:53:02.709Z,50
2016-06-05T06:54:02.695Z,50
2016-06-05T06:55:02.683Z,50
2016-06-05T06:56:02.653Z,50
2016-06-05T06:57:02.656Z,50
2016-06-05T06:58:03.128Z,50
2016-06-05T06:59:02.475Z,50
2016-06-05T07:00:02.586Z,50
2016-06-05T07:01:02.589Z,50
2016-06-05T07:02:02.561Z,55
2016-06-05T07:03:02.532Z,55
2016-06-05T07:04:02.519Z,55
2016-06-05T07:05:02.507Z,55
2016-06-05T07:06:02.478Z,55
2016-06-05T07:07:02.466Z,55
2016-06-05T07:08:02.452Z,55
2016-06-05T07:09:02.439Z,55
2016-06-05T07:10:02.427Z,55
2016-06-05T07:11:02.429Z,60
2016-06-05T07:12:02.400Z,55
2016-06-05T07:13:03.887Z,60
2016-06-05T07:14:02.235Z,65
2016-06-05T07:15:02.346Z,65
2016-06-05T07:16:02.318Z,65
2016-06-05T07:17:02.335Z,70
2016-06-05T07:18:02.306Z,70
2016-06-05T07:19:02.279Z,75
2016-06-05T07:20:02.282Z,75
2016-06-05T07:21:02.253Z,80
2016-06-05T07:22:02.223Z,85
2016-06-05T07:23:02.211Z,85
2016-06-05T07:24:02.198Z,90
2016-06-05T07:25:02.201Z,90
2016-06-05T07:26:02.172Z,90
2016-06-05T07:27:02.159Z,90
2016-06-05T07:28:02.865Z,85
2016-06-05T07:29:03.056Z,85
2016-06-05T07:30:01.949Z,80
2016-06-05T07:31:02.092Z,85
2016-06-05T07:32:02.080Z,80
2016-06-05T07:33:02.066Z,85
2016-06-05T07:34:02.038Z,80
2016-06-05T07:35:02.025Z,80
2016-06-05T07:36:02.011Z,80
2016-06-05T07:37:01.999Z,85
2016-06-05T07:38:01.970Z,85
2016-06-05T07:39:01.958Z,90
2016-06-05T07:40:01.960Z,95
2016-06-05T07:41:01.932Z,95
2016-06-05T07:42:01.918Z,100
2016-06-05T07:43:01.890Z,100
2016-06-05T07:44:02.174Z,100
2016-06-05T07:45:01.879Z,95
2016-06-05T07:46:01.851Z,95
2016-06-05T07:47:01.838Z,95
2016-06-05T07:48:01.826Z,95
2016-06-05T07:49:01.843Z,95
2016-06-05T07:50:01.643Z,95
2016-06-05T07:51:01.787Z,95
2016-06-05T07:52:01.773Z,95
2016-06-05T07:53:01.589Z,90
2016-06-05T07:54:01.732Z,75
2016-06-05T07:55:01.734Z,85
2016-06-05T07:56:01.706Z,90
2016-06-05T07:57:01.709Z,115
2016-06-05T07:58:01.883Z,125
2016-06-05T07:59:02.074Z,150
2016-06-05T08:00:01.639Z,160
2016-06-05T08:01:01.485Z,155
2016-06-05T08:02:01.645Z,165
2016-06-05T08:03:01.600Z,135
2016-06-05T08:04:01.586Z,110
2016-06-05T08:05:01.418Z,100
2016-06-05T08:06:01.561Z,90
2016-06-05T08:07:01.533Z,110
2016-06-05T08:08:01.519Z,120
2016-06-05T08:09:01.491Z,140
2016-06-05T08:10:01.494Z,150
2016-06-05T08:11:01.480Z,150
2016-06-05T08:12:01.452Z,165
2016-06-05T08:13:01.315Z,165
2016-06-05T08:14:01.724Z,160
2016-06-05T08:15:01.398Z,135
2016-06-05T08:16:01.415Z,125
2016-06-05T08:17:01.387Z,130
2016-06-05T08:18:01.374Z,120
2016-06-05T08:19:01.362Z,115
2016-06-05T08:20:01.333Z,130
2016-06-05T08:21:01.320Z,140
2016-06-05T08:22:01.307Z,150
2016-06-05T08:23:01.294Z,145
2016-06-05T08:24:01.282Z,135
2016-06-05T08:25:01.284Z,135
2016-06-05T08:26:01.256Z,140
2016-06-05T08:27:01.242Z,130
2016-06-05T08:28:01.167Z,120
2016-06-05T08:29:00.920Z,125
2016-06-05T08:30:01.189Z,130
2016-06-05T08:31:01.175Z,135
2016-06-05T08:32:01.022Z,140
2016-06-05T08:33:01.165Z,140
2016-06-05T08:34:01.122Z,140
2016-06-05T08:35:01.124Z,145
2016-06-05T08:36:00.955Z,155
2016-06-05T08:37:01.097Z,165
2016-06-05T08:38:01.069Z,160
2016-06-05T08:39:01.055Z,175
2016-06-05T08:40:01.043Z,190
2016-06-05T08:41:01.030Z,190
2016-06-05T08:42:00.846Z,190
2016-06-05T08:43:01.286Z,190
2016-06-05T08:44:02.726Z,195
2016-06-05T08:45:00.963Z,165
2016-06-05T08:46:00.950Z,120
2016-06-05T08:47:00.937Z,140
2016-06-05T08:48:00.940Z,135
2016-06-05T08:49:00.927Z,130
2016-06-05T08:50:00.882Z,120
2016-06-05T08:51:00.870Z,135
2016-06-05T08:52:00.873Z,150
2016-06-05T08:53:00.859Z,150
2016-06-05T08:54:00.846Z,150
2016-06-05T08:55:00.833Z,140
2016-06-05T08:56:00.805Z,155
2016-06-05T08:57:00.792Z,160
2016-06-05T08:58:01.654Z,180
2016-06-05T08:59:01.094Z,190
2016-06-05T09:00:00.753Z,230
2016-06-05T09:01:00.725Z,235
2016-06-05T09:02:00.712Z,195
2016-06-05T09:03:00.699Z,150
2016-06-05T09:04:00.702Z,145
2016-06-05T09:05:00.689Z,145
2016-06-05T09:06:00.676Z,125
2016-06-05T09:07:00.663Z,145
2016-06-05T09:08:00.634Z,195
2016-06-05T09:09:00.622Z,200
2016-06-05T09:10:00.608Z,190
2016-06-05T09:11:00.580Z,170
2016-06-05T09:12:00.582Z,145
2016-06-05T09:13:00.835Z,135
2016-06-05T09:14:01.932Z,130
2016-06-05T09:15:00.371Z,130
2016-06-05T09:16:00.515Z,140
2016-06-05T09:17:00.502Z,150
2016-06-05T09:18:00.490Z,155
2016-06-05T09:19:00.492Z,170
2016-06-05T09:20:00.448Z,165
2016-06-05T09:21:00.451Z,170
2016-06-05T09:22:00.438Z,170
2016-06-05T09:23:00.424Z,185
2016-06-05T09:24:00.411Z,195
2016-06-05T09:25:00.383Z,195
2016-06-05T09:26:00.371Z,170
2016-06-05T09:27:00.357Z,150
2016-06-05T09:28:00.234Z,145
2016-06-05T09:29:00.347Z,145
2016-06-05T09:30:00.318Z,165
2016-06-05T09:31:00.290Z,175
2016-06-05T09:32:00.292Z,145
2016-06-05T09:33:00.264Z,130
2016-06-05T09:34:00.251Z,125
2016-06-05T09:35:00.239Z,130
2016-06-05T09:36:00.225Z,145
2016-06-05T09:37:00.211Z,125
2016-06-05T09:38:00.199Z,130
2016-06-05T09:39:00.186Z,130
2016-06-05T09:40:00.033Z,135
2016-06-05T09:41:00.160Z,145
2016-06-05T09:42:00.148Z,150
2016-06-05T09:43:00.635Z,155
2016-06-05T09:44:01.527Z,165
2016-06-05T09:45:00.077Z,180
2016-06-05T09:46:00.111Z,170
2016-06-05T09:47:00.068Z,155
2016-06-05T09:48:00.070Z,155
2016-06-05T09:49:00.041Z,165
2016-06-05T09:49:59.857Z,160
2016-06-05T09:51:00.016Z,145
2016-06-05T09:52:00.002Z,115
2016-06-05T09:52:59.818Z,145
2016-06-05T09:53:59.961Z,160
2016-06-05T09:54:59.964Z,180
2016-06-05T09:55:59.935Z,210
2016-06-05T09:56:59.907Z,205
2016-06-05T09:58:01.128Z,200
2016-06-05T09:58:59.615Z,200
2016-06-05T09:59:59.884Z,200
2016-06-05T10:00:59.871Z,195
2016-06-05T10:01:59.858Z,175
2016-06-05T10:02:59.845Z,185
2016-06-05T10:03:59.831Z,270
2016-06-05T10:04:59.803Z,250
2016-06-05T10:05:59.789Z,250
2016-06-05T10:06:59.778Z,265
2016-06-05T10:07:59.764Z,270
2016-06-05T10:08:59.752Z,230
2016-06-05T10:09:59.722Z,200
2016-06-05T10:10:59.741Z,185
2016-06-05T10:11:59.713Z,160
2016-06-05T10:12:59.559Z,195
2016-06-05T10:13:59.999Z,185
2016-06-05T10:14:59.673Z,175
2016-06-05T10:15:59.660Z,225
2016-06-05T10:16:59.648Z,250
2016-06-05T10:17:59.479Z,270
2016-06-05T10:18:59.621Z,235
2016-06-05T10:19:59.593Z,260
2016-06-05T10:20:59.580Z,270
2016-06-05T10:21:59.567Z,265
2016-06-05T10:22:59.570Z,245
2016-06-05T10:23:59.542Z,205
2016-06-05T10:24:59.529Z,175
2016-06-05T10:25:59.516Z,170
2016-06-05T10:26:59.534Z,170
2016-06-05T10:27:59.520Z,155
2016-06-05T10:28:59.837Z,150
2016-06-05T10:29:59.465Z,145
2016-06-05T10:30:59.451Z,155
2016-06-05T10:31:59.438Z,160
2016-06-05T10:32:59.409Z,185
2016-06-05T10:33:59.412Z,205
2016-06-05T10:34:59.384Z,195
2016-06-05T10:35:59.386Z,240
2016-06-05T10:36:59.358Z,240
2016-06-05T10:37:59.361Z,245
2016-06-05T10:38:59.332Z,240
2016-06-05T10:39:59.319Z,245
2016-06-05T10:40:59.322Z,250
2016-06-05T10:41:59.293Z,240
2016-06-05T10:42:59.514Z,240
2016-06-05T10:44:00.080Z,270
2016-06-05T10:44:59.238Z,265
2016-06-05T10:45:59.258Z,255
2016-06-05T10:46:59.229Z,235
2016-06-05T10:47:59.231Z,220
2016-06-05T10:48:59.202Z,210
2016-06-05T10:49:59.190Z,210
2016-06-05T10:50:59.208Z,210
2016-06-05T10:51:59.163Z,210
2016-06-05T10:52:59.166Z,220
2016-06-05T10:53:58.981Z,225
2016-06-05T10:54:59.126Z,235
2016-06-05T10:55:59.112Z,265
2016-06-05T10:56:59.115Z,285
2016-06-05T10:57:59.101Z,295
2016-06-05T10:58:59.089Z,305
2016-06-05T10:59:59.076Z,255
2016-06-05T11:00:59.047Z,205
2016-06-05T11:01:59.050Z,220
2016-06-05T11:02:59.037Z,185
2016-06-05T11:03:59.009Z,215
2016-06-05T11:04:58.840Z,220
2016-06-05T11:05:58.983Z,230
2016-06-05T11:06:58.969Z,180
2016-06-05T11:07:58.800Z,190
2016-06-05T11:08:58.959Z,205
2016-06-05T11:09:58.947Z,205
2016-06-05T11:10:58.919Z,205
2016-06-05T11:11:58.905Z,205
2016-06-05T11:12:59.611Z,200
2016-06-05T11:13:58.895Z,200
2016-06-05T11:14:58.867Z,205
2016-06-05T11:15:58.868Z,205
2016-06-05T11:16:58.871Z,205
2016-06-05T11:17:58.827Z,205
2016-06-05T11:18:58.830Z,205
2016-06-05T11:19:58.802Z,210
2016-06-05T11:20:58.632Z,210
2016-06-05T11:21:58.807Z,215
2016-06-05T11:22:58.621Z,215
2016-06-05T11:23:58.765Z,215
2016-06-05T11:24:58.612Z,220
2016-06-05T11:25:58.740Z,225
2016-06-05T11:26:58.727Z,225
2016-06-05T11:27:59.590Z,230
2016-06-05T11:28:58.935Z,620
2016-06-05T11:29:58.688Z,1530
2016-06-05T11:30:58.690Z,2135
2016-06-05T11:31:58.678Z,2135
2016-06-05T11:32:58.665Z,2255
2016-06-05T11:33:58.636Z,2310
2016-06-05T11:34:58.639Z,2265
2016-06-05T11:35:58.642Z,2220
2016-06-05T11:36:58.613Z,2195
2016-06-05T11:37:58.616Z,2125
2016-06-05T11:38:58.619Z,2095
2016-06-05T11:39:58.622Z,2105
2016-06-05T11:40:58.592Z,2125
2016-06-05T11:41:58.580Z,2080
2016-06-05T11:42:58.394Z,2120
2016-06-05T11:43:59.413Z,2240
2016-06-05T11:44:58.588Z,2185
2016-06-05T11:45:58.575Z,2190
2016-06-05T11:46:58.577Z,2150
2016-06-05T11:47:58.580Z,2240
2016-06-05T11:48:58.567Z,2310
2016-06-05T11:49:58.413Z,2245
2016-06-05T11:50:58.557Z,2185
2016-06-05T11:51:58.543Z,2125
2016-06-05T11:52:58.546Z,2215
2016-06-05T11:53:58.535Z,2255
2016-06-05T11:54:58.537Z,2265
2016-06-05T11:55:58.539Z,2355
2016-06-05T11:56:58.526Z,2315
2016-06-05T11:57:58.576Z,2355
2016-06-05T11:58:58.531Z,2330
2016-06-05T11:59:58.518Z,2355
2016-06-05T12:00:58.553Z,2325
2016-06-05T12:01:58.523Z,2265
2016-06-05T12:02:58.542Z,2275
2016-06-05T12:03:58.514Z,2335
2016-06-05T12:04:58.500Z,2235
2016-06-05T12:05:58.504Z,2225
2016-06-05T12:06:58.507Z,2275
2016-06-05T12:07:58.508Z,2110
2016-06-05T12:08:58.512Z,2140
2016-06-05T12:09:58.499Z,2255
2016-06-05T12:10:58.501Z,2365
2016-06-05T12:11:58.489Z,2025
2016-06-05T12:12:59.539Z,1400
2016-06-05T12:13:59.369Z,745
2016-06-05T12:14:58.340Z,545
2016-06-05T12:15:58.484Z,500
2016-06-05T12:16:58.486Z,480
2016-06-05T12:17:58.473Z,475
2016-06-05T12:18:58.477Z,470
2016-06-05T12:19:58.479Z,475
2016-06-05T12:20:58.482Z,525
2016-06-05T12:21:58.469Z,635
2016-06-05T12:22:58.471Z,660
2016-06-05T12:23:58.474Z,570
2016-06-05T12:24:58.476Z,515
2016-06-05T12:25:58.464Z,500
2016-06-05T12:26:58.465Z,485
2016-06-05T12:27:58.843Z,480
2016-06-05T12:28:59.409Z,475
2016-06-05T12:29:58.459Z,470
2016-06-05T12:30:58.461Z,460
2016-06-05T12:31:58.464Z,445
2016-06-05T12:32:58.451Z,450
2016-06-05T12:33:58.454Z,450
2016-06-05T12:34:58.301Z,450
2016-06-05T12:35:58.443Z,450
2016-06-05T12:36:58.445Z,450
2016-06-05T12:37:58.434Z,450
2016-06-05T12:38:58.295Z,455
2016-06-05T12:39:58.454Z,460
2016-06-05T12:40:58.441Z,455
2016-06-05T12:41:58.445Z,460
2016-06-05T12:42:59.556Z,465
2016-06-05T12:43:58.747Z,470
2016-06-05T12:44:58.437Z,475
2016-06-05T12:45:58.424Z,480
2016-06-05T12:46:58.427Z,480
2016-06-05T12:47:58.429Z,485
2016-06-05T12:48:58.416Z,490
2016-06-05T12:49:58.419Z,495
2016-06-05T12:50:58.421Z,500
2016-06-05T12:51:58.424Z,505
2016-06-05T12:52:58.411Z,515
2016-06-05T12:53:58.414Z,525
2016-06-05T12:54:58.416Z,535
2016-06-05T12:55:58.419Z,545
2016-06-05T12:56:58.422Z,555
2016-06-05T12:57:59.425Z,570
2016-06-05T12:58:59.115Z,595
2016-06-05T12:59:58.398Z,655
2016-06-05T13:00:58.433Z,905
2016-06-05T13:01:58.404Z,1515
2016-06-05T13:02:58.406Z,2030
2016-06-05T13:03:58.394Z,2305
2016-06-05T13:04:58.412Z,2250
2016-06-05T13:05:58.399Z,2240
2016-06-05T13:06:58.402Z,2210
2016-06-05T13:07:58.404Z,2145
2016-06-05T13:08:58.407Z,2230
2016-06-05T13:09:58.409Z,2335
2016-06-05T13:10:58.381Z,2315
2016-06-05T13:11:58.400Z,2285
2016-06-05T13:12:58.653Z,2350
2016-06-05T13:13:58.592Z,2430
2016-06-05T13:14:58.392Z,2400
2016-06-05T13:15:58.395Z,2510
2016-06-05T13:16:58.382Z,2400
2016-06-05T13:17:58.369Z,2245
2016-06-05T13:18:58.388Z,2410
2016-06-05T13:19:58.390Z,2485
2016-06-05T13:20:58.377Z,2480
2016-06-05T13:21:58.380Z,2465
2016-06-05T13:22:58.382Z,2535
2016-06-05T13:23:58.380Z,2450
2016-06-05T13:24:58.406Z,2430
2016-06-05T13:25:58.448Z,2325
2016-06-05T13:26:58.458Z,2505
2016-06-05T13:27:59.312Z,2650
2016-06-05T13:28:58.503Z,2490
2016-06-05T13:29:58.500Z,2520
2016-06-05T13:30:58.511Z,2545
2016-06-05T13:31:58.522Z,2455
2016-06-05T13:32:58.518Z,2435
2016-06-05T13:33:58.526Z,2415
2016-06-05T13:34:58.376Z,2450
2016-06-05T13:35:58.226Z,2420
2016-06-05T13:36:58.544Z,2505
2016-06-05T13:37:58.533Z,2560
2016-06-05T13:38:58.538Z,2375
2016-06-05T13:39:58.542Z,2465
2016-06-05T13:40:58.593Z,2540
2016-06-05T13:41:58.565Z,2420
2016-06-05T13:42:58.569Z,2350
2016-06-05T13:43:58.588Z,2565
2016-06-05T13:44:58.404Z,2520
2016-06-05T13:45:58.532Z,2540
2016-06-05T13:46:58.534Z,2620
2016-06-05T13:47:58.554Z,2560
2016-06-05T13:48:58.401Z,2515
2016-06-05T13:49:58.621Z,2480
2016-06-05T13:50:58.421Z,2515
2016-06-05T13:51:58.377Z,2525
2016-06-05T13:52:58.504Z,2495
2016-06-05T13:53:58.242Z,2535
2016-06-05T13:54:58.526Z,2535
2016-06-05T13:55:58.529Z,2425
2016-06-05T13:56:58.516Z,2325
2016-06-05T13:57:59.362Z,2340
2016-06-05T13:58:59.459Z,2335
2016-06-05T13:59:58.524Z,2300
2016-06-05T14:00:58.511Z,2220
2016-06-05T14:01:58.514Z,2225
2016-06-05T14:02:58.516Z,2310
2016-06-05T14:03:58.519Z,2285
2016-06-05T14:04:58.522Z,2235
2016-06-05T14:05:58.337Z,2310
2016-06-05T14:06:58.511Z,2255
2016-06-05T14:07:58.514Z,2285
2016-06-05T14:08:58.501Z,2235